sensor_id;sensor_type;location;lat;lon;timestamp;temperature;humidity
18880;DHT22;9572;52.378;13.404;2023-03-05T00:01:23;3.80;99.90
18880;DHT22;9572;52.378;13.404;2023-03-05T00:03:51;3.80;99.90
18880;DHT22;9572;52.378;13.404;2023-03-05T00:06:18;3.90;99.90
18880;DHT22;9572;52.378;13.404;2023-03-05T00:08:46;3.80;99.90
18880;DHT22;9572;52.378;13.404;2023-03-05T00:11:13;3.80;99.90
18880;DHT22;9572;52.378;13.404;2023-03-05T00:13:41;3.80;99.90
18880;DHT22;9572;52.378;13.404;2023-03-05T00:16:11;3.70;99.90
18880;DHT22;9572;52.378;13.404;2023-03-05T00:18:38;3.60;99.90
18880;DHT22;9572;52.378;13.404;2023-03-05T00:21:17;3.50;99.90
18880;DHT22;9572;52.378;13.404;2023-03-05T00:23:44;3.40;99.90
18880;DHT22;9572;52.378;13.404;2023-03-05T00:26:11;3.40;99.90
18880;DHT22;9572;52.378;13.404;2023-03-05T00:28:38;3.30;99.90
18880;DHT22;9572;52.378;13.404;2023-03-05T00:31:05;3.20;99.90
18880;DHT22;9572;52.378;13.404;2023-03-05T00:33:33;3.20;99.90
18880;DHT22;9572;52.378;13.404;2023-03-05T00:36:05;3.20;99.90
18880;DHT22;9572;52.378;13.404;2023-03-05T00:38:32;3.20;99.90
18880;DHT22;9572;52.378;13.404;2023-03-05T00:40:59;3.20;99.90
18880;DHT22;9572;52.378;13.404;2023-03-05T00:43:26;3.20;99.90
18880;DHT22;9572;52.378;13.404;2023-03-05T00:45:53;3.20;99.90
18880;DHT22;9572;52.378;13.404;2023-03-05T00:48:20;3.20;99.90
18880;DHT22;9572;52.378;13.404;2023-03-05T00:50:48;3.20;99.90
18880;DHT22;9572;52.378;13.404;2023-03-05T00:53:15;3.20;99.90
18880;DHT22;9572;52.378;13.404;2023-03-05T00:55:42;3.10;99.90
18880;DHT22;9572;52.378;13.404;2023-03-05T00:58:09;3.10;99.90
18880;DHT22;9572;52.378;13.404;2023-03-05T01:00:36;3.30;99.90
18880;DHT22;9572;52.378;13.404;2023-03-05T01:03:03;3.30;99.90
18880;DHT22;9572;52.378;13.404;2023-03-05T01:05:30;3.30;99.90
18880;DHT22;9572;52.378;13.404;2023-03-05T01:07:58;3.20;99.90
18880;DHT22;9572;52.378;13.404;2023-03-05T01:10:25;3.20;99.90
18880;DHT22;9572;52.378;13.404;2023-03-05T01:12:53;3.30;99.90
18880;DHT22;9572;52.378;13.404;2023-03-05T01:15:21;3.20;99.90
18880;DHT22;9572;52.378;13.404;2023-03-05T01:17:48;3.20;99.90
18880;DHT22;9572;52.378;13.404;2023-03-05T01:20:17;3.10;99.90
18880;DHT22;9572;52.378;13.404;2023-03-05T01:22:45;3.10;99.90
18880;DHT22;9572;52.378;13.404;2023-03-05T01:25:15;3.10;99.90
18880;DHT22;9572;52.378;13.404;2023-03-05T01:27:42;3.10;99.90
18880;DHT22;9572;52.378;13.404;2023-03-05T01:30:10;3.10;99.90
18880;DHT22;9572;52.378;13.404;2023-03-05T01:32:38;3.10;99.90
18880;DHT22;9572;52.378;13.404;2023-03-05T01:35:07;3.10;99.90
18880;DHT22;9572;52.378;13.404;2023-03-05T01:37:34;3.10;99.90
18880;DHT22;9572;52.378;13.404;2023-03-05T01:40:01;3.10;99.90
18880;DHT22;9572;52.378;13.404;2023-03-05T01:42:29;3.00;99.90
18880;DHT22;9572;52.378;13.404;2023-03-05T01:45:01;3.00;99.90
18880;DHT22;9572;52.378;13.404;2023-03-05T01:47:29;2.90;99.90
18880;DHT22;9572;52.378;13.404;2023-03-05T01:49:56;2.90;99.90
18880;DHT22;9572;52.378;13.404;2023-03-05T01:52:24;2.90;99.90
18880;DHT22;9572;52.378;13.404;2023-03-05T01:54:53;2.90;99.90
18880;DHT22;9572;52.378;13.404;2023-03-05T01:57:25;2.90;99.90
18880;DHT22;9572;52.378;13.404;2023-03-05T01:59:57;2.90;99.90
18880;DHT22;9572;52.378;13.404;2023-03-05T02:02:25;2.80;99.90
18880;DHT22;9572;52.378;13.404;2023-03-05T02:04:55;2.80;99.90
18880;DHT22;9572;52.378;13.404;2023-03-05T02:07:24;2.70;99.90
18880;DHT22;9572;52.378;13.404;2023-03-05T02:09:51;2.70;99.90
18880;DHT22;9572;52.378;13.404;2023-03-05T02:12:17;2.60;99.90
18880;DHT22;9572;52.378;13.404;2023-03-05T02:14:48;2.50;99.90
18880;DHT22;9572;52.378;13.404;2023-03-05T02:17:17;2.50;99.90
18880;DHT22;9572;52.378;13.404;2023-03-05T02:19:49;2.50;99.90
18880;DHT22;9572;52.378;13.404;2023-03-05T02:22:21;2.50;99.90
18880;DHT22;9572;52.378;13.404;2023-03-05T02:24:49;2.50;99.90
18880;DHT22;9572;52.378;13.404;2023-03-05T02:27:17;2.50;99.90
18880;DHT22;9572;52.378;13.404;2023-03-05T02:29:47;2.60;99.90
18880;DHT22;9572;52.378;13.404;2023-03-05T02:32:14;2.50;99.90
18880;DHT22;9572;52.378;13.404;2023-03-05T02:34:41;2.50;99.90
18880;DHT22;9572;52.378;13.404;2023-03-05T02:37:08;2.40;99.90
18880;DHT22;9572;52.378;13.404;2023-03-05T02:39:36;2.50;99.90
18880;DHT22;9572;52.378;13.404;2023-03-05T02:42:04;2.50;99.90
18880;DHT22;9572;52.378;13.404;2023-03-05T02:44:31;2.40;99.90
18880;DHT22;9572;52.378;13.404;2023-03-05T02:46:59;2.50;99.90
18880;DHT22;9572;52.378;13.404;2023-03-05T02:49:26;2.50;99.90
18880;DHT22;9572;52.378;13.404;2023-03-05T02:51:53;2.50;99.90
18880;DHT22;9572;52.378;13.404;2023-03-05T02:54:21;2.50;99.90
18880;DHT22;9572;52.378;13.404;2023-03-05T02:56:49;2.50;99.90
18880;DHT22;9572;52.378;13.404;2023-03-05T02:59:16;2.50;99.90
18880;DHT22;9572;52.378;13.404;2023-03-05T03:01:43;2.50;99.90
18880;DHT22;9572;52.378;13.404;2023-03-05T03:04:10;2.50;99.90
18880;DHT22;9572;52.378;13.404;2023-03-05T03:06:37;2.40;99.90
18880;DHT22;9572;52.378;13.404;2023-03-05T03:09:04;2.40;99.90
18880;DHT22;9572;52.378;13.404;2023-03-05T03:11:30;2.40;99.90
18880;DHT22;9572;52.378;13.404;2023-03-05T03:13:59;2.40;99.90
18880;DHT22;9572;52.378;13.404;2023-03-05T03:16:26;2.40;99.90
18880;DHT22;9572;52.378;13.404;2023-03-05T03:18:53;2.50;99.90
18880;DHT22;9572;52.378;13.404;2023-03-05T03:21:22;2.50;99.90
18880;DHT22;9572;52.378;13.404;2023-03-05T03:23:49;2.40;99.90
18880;DHT22;9572;52.378;13.404;2023-03-05T03:26:17;2.40;99.90
18880;DHT22;9572;52.378;13.404;2023-03-05T03:28:44;2.40;99.90
18880;DHT22;9572;52.378;13.404;2023-03-05T03:31:12;2.40;99.90
18880;DHT22;9572;52.378;13.404;2023-03-05T03:33:39;2.40;99.90
18880;DHT22;9572;52.378;13.404;2023-03-05T03:36:06;2.50;99.90
18880;DHT22;9572;52.378;13.404;2023-03-05T03:38:33;2.40;99.90
18880;DHT22;9572;52.378;13.404;2023-03-05T03:41:00;2.50;99.90
18880;DHT22;9572;52.378;13.404;2023-03-05T03:43:27;2.50;99.90
18880;DHT22;9572;52.378;13.404;2023-03-05T03:45:54;2.40;99.90
18880;DHT22;9572;52.378;13.404;2023-03-05T03:48:22;2.40;99.90
18880;DHT22;9572;52.378;13.404;2023-03-05T03:50:49;2.40;99.90
18880;DHT22;9572;52.378;13.404;2023-03-05T03:53:16;2.30;99.90
18880;DHT22;9572;52.378;13.404;2023-03-05T03:55:43;2.30;99.90
18880;DHT22;9572;52.378;13.404;2023-03-05T03:58:11;2.20;99.90
18880;DHT22;9572;52.378;13.404;2023-03-05T04:00:38;2.20;99.90
18880;DHT22;9572;52.378;13.404;2023-03-05T04:03:06;2.10;99.90
18880;DHT22;9572;52.378;13.404;2023-03-05T04:05:34;2.10;99.90
18880;DHT22;9572;52.378;13.404;2023-03-05T04:08:01;2.10;99.90
18880;DHT22;9572;52.378;13.404;2023-03-05T04:10:28;2.10;99.90
18880;DHT22;9572;52.378;13.404;2023-03-05T04:12:54;2.10;99.90
18880;DHT22;9572;52.378;13.404;2023-03-05T04:15:21;2.00;99.90
18880;DHT22;9572;52.378;13.404;2023-03-05T04:17:49;2.00;99.90
18880;DHT22;9572;52.378;13.404;2023-03-05T04:20:16;2.00;99.90
18880;DHT22;9572;52.378;13.404;2023-03-05T04:22:44;2.00;99.90
18880;DHT22;9572;52.378;13.404;2023-03-05T04:25:11;1.90;99.90
18880;DHT22;9572;52.378;13.404;2023-03-05T04:27:38;1.90;99.90
18880;DHT22;9572;52.378;13.404;2023-03-05T04:30:06;1.90;99.90
18880;DHT22;9572;52.378;13.404;2023-03-05T04:32:34;1.90;99.90
18880;DHT22;9572;52.378;13.404;2023-03-05T04:35:01;1.80;99.90
18880;DHT22;9572;52.378;13.404;2023-03-05T04:37:28;1.80;99.90
18880;DHT22;9572;52.378;13.404;2023-03-05T04:39:56;1.80;99.90
18880;DHT22;9572;52.378;13.404;2023-03-05T04:42:23;1.80;99.90
18880;DHT22;9572;52.378;13.404;2023-03-05T04:44:50;1.80;99.90
18880;DHT22;9572;52.378;13.404;2023-03-05T04:47:18;1.90;99.90
18880;DHT22;9572;52.378;13.404;2023-03-05T04:49:45;1.80;99.90
18880;DHT22;9572;52.378;13.404;2023-03-05T04:52:13;1.80;99.90
18880;DHT22;9572;52.378;13.404;2023-03-05T04:54:40;1.80;99.90
18880;DHT22;9572;52.378;13.404;2023-03-05T04:57:08;1.80;99.90
18880;DHT22;9572;52.378;13.404;2023-03-05T04:59:36;1.90;99.90
18880;DHT22;9572;52.378;13.404;2023-03-05T05:02:03;1.90;99.90
18880;DHT22;9572;52.378;13.404;2023-03-05T05:04:30;1.80;99.90
18880;DHT22;9572;52.378;13.404;2023-03-05T05:06:58;1.80;99.90
18880;DHT22;9572;52.378;13.404;2023-03-05T05:09:25;1.80;99.90
18880;DHT22;9572;52.378;13.404;2023-03-05T05:11:52;1.80;99.90
18880;DHT22;9572;52.378;13.404;2023-03-05T05:14:21;1.80;99.90
18880;DHT22;9572;52.378;13.404;2023-03-05T05:16:47;1.80;99.90
18880;DHT22;9572;52.378;13.404;2023-03-05T05:19:14;1.80;99.90
18880;DHT22;9572;52.378;13.404;2023-03-05T05:21:41;1.80;99.90
18880;DHT22;9572;52.378;13.404;2023-03-05T05:24:08;1.80;99.90
18880;DHT22;9572;52.378;13.404;2023-03-05T05:26:35;1.80;99.90
18880;DHT22;9572;52.378;13.404;2023-03-05T05:29:02;1.80;99.90
18880;DHT22;9572;52.378;13.404;2023-03-05T05:31:30;1.70;99.90
18880;DHT22;9572;52.378;13.404;2023-03-05T05:33:57;1.70;99.90
18880;DHT22;9572;52.378;13.404;2023-03-05T05:36:24;1.80;99.90
18880;DHT22;9572;52.378;13.404;2023-03-05T05:38:51;1.80;99.90
18880;DHT22;9572;52.378;13.404;2023-03-05T05:41:18;1.70;99.90
18880;DHT22;9572;52.378;13.404;2023-03-05T05:43:46;1.70;99.90
18880;DHT22;9572;52.378;13.404;2023-03-05T05:46:15;1.70;99.90
18880;DHT22;9572;52.378;13.404;2023-03-05T05:48:44;1.70;99.90
18880;DHT22;9572;52.378;13.404;2023-03-05T05:51:13;1.70;99.90
18880;DHT22;9572;52.378;13.404;2023-03-05T05:53:40;1.70;99.90
18880;DHT22;9572;52.378;13.404;2023-03-05T05:56:08;1.70;99.90
18880;DHT22;9572;52.378;13.404;2023-03-05T05:58:36;1.80;99.90
18880;DHT22;9572;52.378;13.404;2023-03-05T06:01:11;1.70;99.90
18880;DHT22;9572;52.378;13.404;2023-03-05T06:03:38;1.80;99.90
18880;DHT22;9572;52.378;13.404;2023-03-05T06:06:09;1.90;99.90
18880;DHT22;9572;52.378;13.404;2023-03-05T06:08:36;1.90;99.90
18880;DHT22;9572;52.378;13.404;2023-03-05T06:11:03;1.90;99.90
18880;DHT22;9572;52.378;13.404;2023-03-05T06:13:30;1.90;99.90
18880;DHT22;9572;52.378;13.404;2023-03-05T06:15:58;1.90;99.90
18880;DHT22;9572;52.378;13.404;2023-03-05T06:18:25;2.00;99.90
18880;DHT22;9572;52.378;13.404;2023-03-05T06:20:56;2.10;99.90
18880;DHT22;9572;52.378;13.404;2023-03-05T06:23:25;2.10;99.90
18880;DHT22;9572;52.378;13.404;2023-03-05T06:25:52;2.10;99.90
18880;DHT22;9572;52.378;13.404;2023-03-05T06:28:20;2.10;99.90
18880;DHT22;9572;52.378;13.404;2023-03-05T06:30:47;2.10;99.90
18880;DHT22;9572;52.378;13.404;2023-03-05T06:33:14;2.10;99.90
18880;DHT22;9572;52.378;13.404;2023-03-05T06:35:42;2.20;99.90
18880;DHT22;9572;52.378;13.404;2023-03-05T06:38:09;2.20;99.90
18880;DHT22;9572;52.378;13.404;2023-03-05T06:40:38;2.30;99.90
18880;DHT22;9572;52.378;13.404;2023-03-05T06:43:05;2.40;99.90
18880;DHT22;9572;52.378;13.404;2023-03-05T06:45:32;2.30;99.90
18880;DHT22;9572;52.378;13.404;2023-03-05T06:47:59;2.40;99.90
18880;DHT22;9572;52.378;13.404;2023-03-05T06:50:26;2.40;99.90
18880;DHT22;9572;52.378;13.404;2023-03-05T06:52:53;2.40;99.90
18880;DHT22;9572;52.378;13.404;2023-03-05T06:55:20;2.50;99.90
18880;DHT22;9572;52.378;13.404;2023-03-05T06:57:48;2.50;99.90
18880;DHT22;9572;52.378;13.404;2023-03-05T07:00:16;2.60;99.90
18880;DHT22;9572;52.378;13.404;2023-03-05T07:02:43;2.60;99.90
18880;DHT22;9572;52.378;13.404;2023-03-05T07:05:10;2.60;99.90
18880;DHT22;9572;52.378;13.404;2023-03-05T07:07:37;2.60;99.90
18880;DHT22;9572;52.378;13.404;2023-03-05T07:10:05;2.60;99.90
18880;DHT22;9572;52.378;13.404;2023-03-05T07:12:32;2.70;99.90
18880;DHT22;9572;52.378;13.404;2023-03-05T07:15:01;2.60;99.90
18880;DHT22;9572;52.378;13.404;2023-03-05T07:17:28;2.80;99.90
18880;DHT22;9572;52.378;13.404;2023-03-05T07:19:55;2.80;99.90
18880;DHT22;9572;52.378;13.404;2023-03-05T07:22:22;2.80;99.90
18880;DHT22;9572;52.378;13.404;2023-03-05T07:24:49;2.70;99.90
18880;DHT22;9572;52.378;13.404;2023-03-05T07:27:16;2.70;99.90
18880;DHT22;9572;52.378;13.404;2023-03-05T07:29:43;2.80;99.90
18880;DHT22;9572;52.378;13.404;2023-03-05T07:32:11;2.80;99.90
18880;DHT22;9572;52.378;13.404;2023-03-05T07:34:38;2.80;99.90
18880;DHT22;9572;52.378;13.404;2023-03-05T07:37:05;2.80;99.90
18880;DHT22;9572;52.378;13.404;2023-03-05T07:39:31;2.80;99.90
18880;DHT22;9572;52.378;13.404;2023-03-05T07:41:58;2.80;99.90
18880;DHT22;9572;52.378;13.404;2023-03-05T07:44:25;2.90;99.90
18880;DHT22;9572;52.378;13.404;2023-03-05T07:46:52;3.00;99.90
18880;DHT22;9572;52.378;13.404;2023-03-05T07:49:20;3.00;99.90
18880;DHT22;9572;52.378;13.404;2023-03-05T07:51:48;3.00;99.90
18880;DHT22;9572;52.378;13.404;2023-03-05T07:54:15;3.10;99.90
18880;DHT22;9572;52.378;13.404;2023-03-05T07:56:42;3.20;99.90
18880;DHT22;9572;52.378;13.404;2023-03-05T07:59:10;3.20;99.90
18880;DHT22;9572;52.378;13.404;2023-03-05T08:01:38;3.20;99.90
18880;DHT22;9572;52.378;13.404;2023-03-05T08:04:05;3.30;99.90
18880;DHT22;9572;52.378;13.404;2023-03-05T08:06:34;3.30;99.90
18880;DHT22;9572;52.378;13.404;2023-03-05T08:09:01;3.30;99.90
18880;DHT22;9572;52.378;13.404;2023-03-05T08:11:27;3.30;99.90
18880;DHT22;9572;52.378;13.404;2023-03-05T08:13:55;3.30;99.90
18880;DHT22;9572;52.378;13.404;2023-03-05T08:16:24;3.20;99.90
18880;DHT22;9572;52.378;13.404;2023-03-05T08:18:53;3.30;99.90
18880;DHT22;9572;52.378;13.404;2023-03-05T08:21:22;3.30;99.90
18880;DHT22;9572;52.378;13.404;2023-03-05T08:23:52;3.40;99.90
18880;DHT22;9572;52.378;13.404;2023-03-05T08:26:21;3.50;99.90
18880;DHT22;9572;52.378;13.404;2023-03-05T08:28:48;3.50;99.90
18880;DHT22;9572;52.378;13.404;2023-03-05T08:31:16;3.50;99.90
18880;DHT22;9572;52.378;13.404;2023-03-05T08:33:43;3.60;99.90
18880;DHT22;9572;52.378;13.404;2023-03-05T08:36:10;3.70;99.90
18880;DHT22;9572;52.378;13.404;2023-03-05T08:38:38;3.80;99.90
18880;DHT22;9572;52.378;13.404;2023-03-05T08:41:06;3.80;99.90
18880;DHT22;9572;52.378;13.404;2023-03-05T08:43:33;3.90;99.90
18880;DHT22;9572;52.378;13.404;2023-03-05T08:46:00;3.90;99.90
18880;DHT22;9572;52.378;13.404;2023-03-05T08:48:28;4.00;99.90
18880;DHT22;9572;52.378;13.404;2023-03-05T08:50:56;4.00;99.90
18880;DHT22;9572;52.378;13.404;2023-03-05T08:53:23;4.10;99.90
18880;DHT22;9572;52.378;13.404;2023-03-05T08:55:53;4.10;99.90
18880;DHT22;9572;52.378;13.404;2023-03-05T08:58:22;4.10;99.90
18880;DHT22;9572;52.378;13.404;2023-03-05T09:00:49;4.00;99.90
18880;DHT22;9572;52.378;13.404;2023-03-05T09:03:16;4.10;99.90
18880;DHT22;9572;52.378;13.404;2023-03-05T09:05:43;4.00;99.90
18880;DHT22;9572;52.378;13.404;2023-03-05T09:08:10;4.10;99.90
18880;DHT22;9572;52.378;13.404;2023-03-05T09:10:37;4.20;99.90
18880;DHT22;9572;52.378;13.404;2023-03-05T09:13:03;4.30;99.90
18880;DHT22;9572;52.378;13.404;2023-03-05T09:15:32;4.30;99.90
18880;DHT22;9572;52.378;13.404;2023-03-05T09:17:58;4.30;99.90
18880;DHT22;9572;52.378;13.404;2023-03-05T09:20:25;4.30;99.90
18880;DHT22;9572;52.378;13.404;2023-03-05T09:22:53;4.30;99.90
18880;DHT22;9572;52.378;13.404;2023-03-05T09:25:20;4.40;99.90
18880;DHT22;9572;52.378;13.404;2023-03-05T09:27:47;4.40;99.90
18880;DHT22;9572;52.378;13.404;2023-03-05T09:30:14;4.50;99.90
18880;DHT22;9572;52.378;13.404;2023-03-05T09:32:42;4.50;99.90
18880;DHT22;9572;52.378;13.404;2023-03-05T09:35:10;4.60;99.90
18880;DHT22;9572;52.378;13.404;2023-03-05T09:37:37;4.60;99.90
18880;DHT22;9572;52.378;13.404;2023-03-05T09:40:04;4.60;99.90
18880;DHT22;9572;52.378;13.404;2023-03-05T09:42:44;4.40;99.90
18880;DHT22;9572;52.378;13.404;2023-03-05T09:45:22;4.30;99.90
18880;DHT22;9572;52.378;13.404;2023-03-05T09:47:58;4.30;99.90
18880;DHT22;9572;52.378;13.404;2023-03-05T09:50:35;4.20;99.90
18880;DHT22;9572;52.378;13.404;2023-03-05T09:53:20;4.20;99.90
18880;DHT22;9572;52.378;13.404;2023-03-05T09:55:51;4.20;99.90
18880;DHT22;9572;52.378;13.404;2023-03-05T09:58:27;4.20;99.90
18880;DHT22;9572;52.378;13.404;2023-03-05T10:00:59;4.20;99.90
18880;DHT22;9572;52.378;13.404;2023-03-05T10:03:34;4.40;99.90
18880;DHT22;9572;52.378;13.404;2023-03-05T10:06:10;4.50;99.90
18880;DHT22;9572;52.378;13.404;2023-03-05T10:08:50;4.50;99.90
18880;DHT22;9572;52.378;13.404;2023-03-05T10:11:33;4.50;99.90
18880;DHT22;9572;52.378;13.404;2023-03-05T10:14:02;4.70;99.90
18880;DHT22;9572;52.378;13.404;2023-03-05T10:16:59;4.70;99.90
18880;DHT22;9572;52.378;13.404;2023-03-05T10:19:41;4.80;99.90
18880;DHT22;9572;52.378;13.404;2023-03-05T10:22:17;4.90;99.90
18880;DHT22;9572;52.378;13.404;2023-03-05T10:24:53;4.80;99.90
18880;DHT22;9572;52.378;13.404;2023-03-05T10:27:33;4.60;99.90
18880;DHT22;9572;52.378;13.404;2023-03-05T10:30:07;4.60;99.90
18880;DHT22;9572;52.378;13.404;2023-03-05T10:32:43;4.70;99.90
18880;DHT22;9572;52.378;13.404;2023-03-05T10:35:29;4.70;99.90
18880;DHT22;9572;52.378;13.404;2023-03-05T10:40:52;5.00;99.90
18880;DHT22;9572;52.378;13.404;2023-03-05T10:43:24;5.10;99.90
18880;DHT22;9572;52.378;13.404;2023-03-05T10:45:53;5.40;99.90
18880;DHT22;9572;52.378;13.404;2023-03-05T10:48:27;5.50;99.90
18880;DHT22;9572;52.378;13.404;2023-03-05T10:51:00;5.40;99.90
18880;DHT22;9572;52.378;13.404;2023-03-05T10:53:31;5.60;99.90
18880;DHT22;9572;52.378;13.404;2023-03-05T10:56:01;5.80;99.90
18880;DHT22;9572;52.378;13.404;2023-03-05T10:58:28;5.80;99.90
18880;DHT22;9572;52.378;13.404;2023-03-05T11:01:04;6.00;99.90
18880;DHT22;9572;52.378;13.404;2023-03-05T11:03:53;6.00;99.90
18880;DHT22;9572;52.378;13.404;2023-03-05T11:06:32;5.80;99.90
18880;DHT22;9572;52.378;13.404;2023-03-05T11:09:15;5.80;99.90
18880;DHT22;9572;52.378;13.404;2023-03-05T11:11:43;5.70;99.90
18880;DHT22;9572;52.378;13.404;2023-03-05T11:14:23;5.70;99.90
18880;DHT22;9572;52.378;13.404;2023-03-05T11:16:54;5.60;99.90
18880;DHT22;9572;52.378;13.404;2023-03-05T11:19:24;5.60;99.90
18880;DHT22;9572;52.378;13.404;2023-03-05T11:22:14;5.60;99.90
18880;DHT22;9572;52.378;13.404;2023-03-05T11:24:41;5.40;99.90
18880;DHT22;9572;52.378;13.404;2023-03-05T11:27:22;5.30;99.90
18880;DHT22;9572;52.378;13.404;2023-03-05T11:29:50;5.10;99.90
18880;DHT22;9572;52.378;13.404;2023-03-05T11:32:21;5.00;99.90
18880;DHT22;9572;52.378;13.404;2023-03-05T11:34:48;5.00;99.90
18880;DHT22;9572;52.378;13.404;2023-03-05T11:37:22;4.90;99.90
18880;DHT22;9572;52.378;13.404;2023-03-05T11:40:06;4.90;99.90
18880;DHT22;9572;52.378;13.404;2023-03-05T11:42:40;4.80;99.90
18880;DHT22;9572;52.378;13.404;2023-03-05T11:45:14;4.70;99.90
18880;DHT22;9572;52.378;13.404;2023-03-05T11:47:43;4.50;99.90
18880;DHT22;9572;52.378;13.404;2023-03-05T11:50:19;4.50;99.90
18880;DHT22;9572;52.378;13.404;2023-03-05T11:52:49;4.40;99.90
18880;DHT22;9572;52.378;13.404;2023-03-05T11:55:18;4.40;99.90
18880;DHT22;9572;52.378;13.404;2023-03-05T11:57:50;4.30;99.90
18880;DHT22;9572;52.378;13.404;2023-03-05T12:00:23;4.50;99.90
18880;DHT22;9572;52.378;13.404;2023-03-05T12:02:53;4.70;99.90
18880;DHT22;9572;52.378;13.404;2023-03-05T12:05:21;4.80;99.90
18880;DHT22;9572;52.378;13.404;2023-03-05T12:07:52;4.70;99.90
18880;DHT22;9572;52.378;13.404;2023-03-05T12:10:21;4.50;99.90
18880;DHT22;9572;52.378;13.404;2023-03-05T12:12:54;4.40;99.90
18880;DHT22;9572;52.378;13.404;2023-03-05T12:15:47;4.30;99.90
18880;DHT22;9572;52.378;13.404;2023-03-05T12:18:29;4.20;99.90
18880;DHT22;9572;52.378;13.404;2023-03-05T12:21:02;4.00;99.90
18880;DHT22;9572;52.378;13.404;2023-03-05T12:23:46;4.00;99.90
18880;DHT22;9572;52.378;13.404;2023-03-05T12:26:13;3.90;99.90
18880;DHT22;9572;52.378;13.404;2023-03-05T12:28:55;4.00;99.90
18880;DHT22;9572;52.378;13.404;2023-03-05T12:31:33;4.10;99.90
18880;DHT22;9572;52.378;13.404;2023-03-05T12:34:40;4.30;99.90
18880;DHT22;9572;52.378;13.404;2023-03-05T12:37:10;4.50;99.90
18880;DHT22;9572;52.378;13.404;2023-03-05T12:39:47;4.70;99.90
18880;DHT22;9572;52.378;13.404;2023-03-05T12:45:36;4.80;99.90
18880;DHT22;9572;52.378;13.404;2023-03-05T12:48:41;5.00;99.90
18880;DHT22;9572;52.378;13.404;2023-03-05T12:51:28;5.00;99.90
18880;DHT22;9572;52.378;13.404;2023-03-05T12:53:55;5.00;99.90
18880;DHT22;9572;52.378;13.404;2023-03-05T12:56:28;5.00;99.90
18880;DHT22;9572;52.378;13.404;2023-03-05T12:58:58;5.00;99.90
18880;DHT22;9572;52.378;13.404;2023-03-05T13:01:35;5.00;99.90
18880;DHT22;9572;52.378;13.404;2023-03-05T13:04:05;4.90;99.90
18880;DHT22;9572;52.378;13.404;2023-03-05T13:06:37;4.80;99.90
18880;DHT22;9572;52.378;13.404;2023-03-05T13:09:11;4.80;99.90
18880;DHT22;9572;52.378;13.404;2023-03-05T13:11:44;4.60;99.90
18880;DHT22;9572;52.378;13.404;2023-03-05T13:14:31;4.50;99.90
18880;DHT22;9572;52.378;13.404;2023-03-05T13:16:59;4.30;99.90
18880;DHT22;9572;52.378;13.404;2023-03-05T13:19:28;3.90;99.90
18880;DHT22;9572;52.378;13.404;2023-03-05T13:21:59;3.70;99.90
18880;DHT22;9572;52.378;13.404;2023-03-05T13:24:27;3.70;99.90
18880;DHT22;9572;52.378;13.404;2023-03-05T13:26:56;3.80;99.90
18880;DHT22;9572;52.378;13.404;2023-03-05T13:29:24;4.00;99.90
18880;DHT22;9572;52.378;13.404;2023-03-05T13:31:54;4.10;99.90
18880;DHT22;9572;52.378;13.404;2023-03-05T13:34:24;4.10;99.90
18880;DHT22;9572;52.378;13.404;2023-03-05T13:36:56;4.20;99.90
18880;DHT22;9572;52.378;13.404;2023-03-05T13:39:26;4.20;99.90
18880;DHT22;9572;52.378;13.404;2023-03-05T13:41:59;4.30;99.90
18880;DHT22;9572;52.378;13.404;2023-03-05T13:44:26;4.40;99.90
18880;DHT22;9572;52.378;13.404;2023-03-05T13:47:11;4.40;99.90
18880;DHT22;9572;52.378;13.404;2023-03-05T13:49:40;4.40;99.90
18880;DHT22;9572;52.378;13.404;2023-03-05T13:52:07;4.40;99.90
18880;DHT22;9572;52.378;13.404;2023-03-05T13:54:34;4.30;99.90
18880;DHT22;9572;52.378;13.404;2023-03-05T13:57:04;4.30;99.90
18880;DHT22;9572;52.378;13.404;2023-03-05T13:59:33;4.30;99.90
18880;DHT22;9572;52.378;13.404;2023-03-05T14:02:13;4.40;99.90
18880;DHT22;9572;52.378;13.404;2023-03-05T14:04:43;4.40;99.90
18880;DHT22;9572;52.378;13.404;2023-03-05T14:07:27;4.40;99.90
18880;DHT22;9572;52.378;13.404;2023-03-05T14:09:55;4.30;99.90
18880;DHT22;9572;52.378;13.404;2023-03-05T14:12:27;4.30;99.90
18880;DHT22;9572;52.378;13.404;2023-03-05T14:14:56;4.30;99.90
18880;DHT22;9572;52.378;13.404;2023-03-05T14:17:41;4.30;99.90
18880;DHT22;9572;52.378;13.404;2023-03-05T14:20:18;4.30;99.90
18880;DHT22;9572;52.378;13.404;2023-03-05T14:22:48;4.30;99.90
18880;DHT22;9572;52.378;13.404;2023-03-05T14:25:26;4.20;99.90
18880;DHT22;9572;52.378;13.404;2023-03-05T14:27:56;4.30;99.90
18880;DHT22;9572;52.378;13.404;2023-03-05T14:30:24;4.30;99.90
18880;DHT22;9572;52.378;13.404;2023-03-05T14:32:53;4.30;99.90
18880;DHT22;9572;52.378;13.404;2023-03-05T14:35:23;4.40;99.90
18880;DHT22;9572;52.378;13.404;2023-03-05T14:37:53;4.40;99.90
18880;DHT22;9572;52.378;13.404;2023-03-05T14:40:22;4.40;99.90
18880;DHT22;9572;52.378;13.404;2023-03-05T14:42:52;4.40;99.90
18880;DHT22;9572;52.378;13.404;2023-03-05T14:45:24;4.40;99.90
18880;DHT22;9572;52.378;13.404;2023-03-05T14:47:52;4.30;99.90
18880;DHT22;9572;52.378;13.404;2023-03-05T14:50:21;4.20;99.90
18880;DHT22;9572;52.378;13.404;2023-03-05T14:52:49;4.10;99.90
18880;DHT22;9572;52.378;13.404;2023-03-05T14:55:18;4.00;99.90
18880;DHT22;9572;52.378;13.404;2023-03-05T14:57:45;3.80;99.90
18880;DHT22;9572;52.378;13.404;2023-03-05T15:00:16;3.70;99.90
18880;DHT22;9572;52.378;13.404;2023-03-05T15:02:45;3.70;99.90
18880;DHT22;9572;52.378;13.404;2023-03-05T15:05:12;3.70;99.90
18880;DHT22;9572;52.378;13.404;2023-03-05T15:07:39;3.80;99.90
18880;DHT22;9572;52.378;13.404;2023-03-05T15:10:07;3.90;99.90
18880;DHT22;9572;52.378;13.404;2023-03-05T15:12:34;3.90;99.90
18880;DHT22;9572;52.378;13.404;2023-03-05T15:15:01;3.80;99.90
18880;DHT22;9572;52.378;13.404;2023-03-05T15:17:32;3.70;99.90
18880;DHT22;9572;52.378;13.404;2023-03-05T15:20:02;3.60;99.90
18880;DHT22;9572;52.378;13.404;2023-03-05T15:22:32;3.50;99.90
18880;DHT22;9572;52.378;13.404;2023-03-05T15:24:59;3.50;99.90
18880;DHT22;9572;52.378;13.404;2023-03-05T15:27:26;3.50;99.90
18880;DHT22;9572;52.378;13.404;2023-03-05T15:29:52;3.50;99.90
18880;DHT22;9572;52.378;13.404;2023-03-05T15:32:19;3.60;99.90
18880;DHT22;9572;52.378;13.404;2023-03-05T15:34:46;3.70;99.90
18880;DHT22;9572;52.378;13.404;2023-03-05T15:37:15;3.60;99.90
18880;DHT22;9572;52.378;13.404;2023-03-05T15:39:42;3.50;99.90
18880;DHT22;9572;52.378;13.404;2023-03-05T15:42:09;3.50;99.90
18880;DHT22;9572;52.378;13.404;2023-03-05T15:44:35;3.50;99.90
18880;DHT22;9572;52.378;13.404;2023-03-05T15:47:04;3.40;99.90
18880;DHT22;9572;52.378;13.404;2023-03-05T15:49:31;3.40;99.90
18880;DHT22;9572;52.378;13.404;2023-03-05T15:51:58;3.30;99.90
18880;DHT22;9572;52.378;13.404;2023-03-05T15:54:26;3.30;99.90
18880;DHT22;9572;52.378;13.404;2023-03-05T15:56:53;3.30;99.90
18880;DHT22;9572;52.378;13.404;2023-03-05T15:59:20;3.20;99.90
18880;DHT22;9572;52.378;13.404;2023-03-05T16:01:49;3.30;99.90
18880;DHT22;9572;52.378;13.404;2023-03-05T16:04:17;3.30;99.90
18880;DHT22;9572;52.378;13.404;2023-03-05T16:06:45;3.30;99.90